| time (UTC) | temp F | wind direction | speed MPH | gust MPH | rain 1hr in | rain 24hr in | rain mn in | humidity % | barometer mb |
| 20260510041209 | 50 | 245 | 0.0 | 0.0 | 0.00 | 0.00 | 0.00 | 94 | 1008.0 |
| 20260510040709 | 51 | 245 | 0.0 | 0.0 | 0.00 | 0.00 | 0.00 | 93 | 1007.0 |
| 20260510040210 | 51 | 245 | 0.0 | 1.0 | 0.00 | 0.00 | 0.19 | 93 | 1007.0 |
| 20260510035709 | 51 | 245 | 0.0 | 2.0 | 0.00 | 0.00 | 0.19 | 93 | 1007.0 |
| 20260510035209 | 51 | 245 | 0.0 | 1.0 | 0.00 | 0.00 | 0.19 | 93 | 1007.0 |
| 20260510034709 | 51 | 245 | 0.0 | 2.0 | 0.00 | 0.00 | 0.19 | 93 | 1007.0 |
| 20260510034210 | 51 | 245 | 2.0 | 2.0 | 0.00 | 0.00 | 0.19 | 93 | 1007.0 |
| 20260510033709 | 52 | 245 | 0.0 | 2.0 | 0.00 | 0.00 | 0.19 | 93 | 1007.0 |
| 20260510033209 | 52 | 245 | 1.0 | 2.0 | 0.00 | 0.00 | 0.19 | 93 | 1007.0 |
| 20260510032709 | 52 | 245 | 0.0 | 3.0 | 0.00 | 0.00 | 0.19 | 93 | 1007.0 |
| 20260510032209 | 52 | 245 | 2.0 | 2.0 | 0.00 | 0.00 | 0.19 | 93 | 1008.0 |
| 20260510031710 | 52 | 245 | 2.0 | 2.0 | 0.00 | 0.00 | 0.19 | 93 | 1008.0 |
| 20260510031209 | 52 | 245 | 1.0 | 2.0 | 0.00 | 0.00 | 0.19 | 93 | 1007.0 |
| 20260510030709 | 52 | 245 | 2.0 | 3.0 | 0.00 | 0.00 | 0.19 | 93 | 1007.0 |
| 20260510030209 | 51 | 245 | 0.0 | 3.0 | 0.00 | 0.00 | 0.19 | 93 | 1007.0 |
| 20260510025709 | 51 | 245 | 1.0 | 3.0 | 0.00 | 0.00 | 0.19 | 93 | 1007.0 |
| 20260510025209 | 51 | 245 | 0.0 | 2.0 | 0.00 | 0.00 | 0.19 | 93 | 1007.0 |
| 20260510024711 | 51 | 245 | 2.0 | 3.0 | 0.00 | 0.00 | 0.19 | 93 | 1007.0 |
| 20260510024210 | 51 | 245 | 1.0 | 2.0 | 0.00 | 0.00 | 0.19 | 93 | 1007.0 |
| 20260510023710 | 51 | 245 | 0.0 | 2.0 | 0.00 | 0.00 | 0.19 | 93 | 1007.0 |
| 20260510023209 | 52 | 245 | 1.0 | 2.0 | 0.00 | 0.00 | 0.19 | 92 | 1007.0 |
| 20260510022709 | 52 | 245 | 2.0 | 3.0 | 0.00 | 0.00 | 0.19 | 92 | 1007.0 |
| 20260510022209 | 52 | 245 | 1.0 | 1.0 | 0.00 | 0.00 | 0.19 | 92 | 1007.0 |
| 20260510021710 | 52 | 245 | 0.0 | 2.0 | 0.00 | 0.00 | 0.19 | 92 | 1006.0 |
| 20260510021209 | 52 | 245 | 0.0 | 3.0 | 0.00 | 0.00 | 0.19 | 92 | 1006.0 |
| 20260510020710 | 52 | 245 | 1.0 | 3.0 | 0.00 | 0.00 | 0.19 | 92 | 1006.0 |
| 20260510020209 | 52 | 245 | 1.0 | 5.0 | 0.00 | 0.00 | 0.19 | 92 | 1007.0 |
| 20260510015710 | 52 | 245 | 1.0 | 4.0 | 0.00 | 0.00 | 0.19 | 92 | 1007.0 |
| 20260510015210 | 52 | 245 | 1.0 | 7.0 | 0.00 | 0.00 | 0.19 | 92 | 1007.0 |
| 20260510014709 | 52 | 245 | 5.0 | 7.0 | 0.00 | 0.00 | 0.19 | 92 | 1007.0 |
| 20260510014210 | 52 | 245 | 0.0 | 0.0 | 0.00 | 0.00 | 0.19 | 92 | 1006.0 |
| 20260510013710 | 52 | 245 | 2.0 | 2.0 | 0.00 | 0.00 | 0.19 | 92 | 1006.0 |
| 20260510013209 | 52 | 245 | 1.0 | 2.0 | 0.00 | 0.00 | 0.19 | 92 | 1006.0 |
| 20260510012709 | 52 | 245 | 2.0 | 6.0 | 0.00 | 0.00 | 0.19 | 92 | 1006.0 |
| 20260510012210 | 52 | 245 | 0.0 | 5.0 | 0.00 | 0.00 | 0.19 | 92 | 1006.0 |
| 20260510011709 | 52 | 245 | 3.0 | 3.0 | 0.00 | 0.00 | 0.19 | 92 | 1006.0 |
| 20260510011209 | 52 | 245 | 3.0 | 5.0 | 0.00 | 0.00 | 0.19 | 92 | 1006.0 |
| 20260510010710 | 52 | 245 | 3.0 | 4.0 | 0.00 | 0.00 | 0.19 | 92 | 1006.0 |
| 20260510010209 | 52 | 245 | 3.0 | 7.0 | 0.00 | 0.00 | 0.19 | 92 | 1006.0 |
| 20260510005709 | 52 | 245 | 1.0 | 6.0 | 0.00 | 0.00 | 0.19 | 92 | 1006.0 |
| 20260510005211 | 52 | 245 | 2.0 | 2.0 | 0.00 | 0.00 | 0.19 | 92 | 1006.0 |
| 20260510004709 | 52 | 245 | 3.0 | 4.0 | 0.00 | 0.00 | 0.19 | 92 | 1006.0 |
| 20260510004209 | 52 | 245 | 1.0 | 3.0 | 0.00 | 0.00 | 0.19 | 93 | 1006.0 |
| 20260510003709 | 52 | 245 | 0.0 | 2.0 | 0.00 | 0.00 | 0.19 | 93 | 1005.0 |
| 20260510003209 | 52 | 245 | 0.0 | 2.0 | 0.01 | 0.00 | 0.19 | 93 | 1005.0 |
| 20260510002709 | 52 | 245 | 1.0 | 4.0 | 0.02 | 0.00 | 0.19 | 93 | 1005.0 |
| 20260510002209 | 52 | 245 | 0.0 | 4.0 | 0.03 | 0.00 | 0.19 | 93 | 1005.0 |
| 20260510001709 | 52 | 245 | 3.0 | 5.0 | 0.04 | 0.00 | 0.19 | 93 | 1005.0 |
| 20260510001209 | 52 | 245 | 3.0 | 5.0 | 0.05 | 0.00 | 0.19 | 93 | 1005.0 |
| 20260510000709 | 52 | 245 | 3.0 | 3.0 | 0.07 | 0.00 | 0.19 | 94 | 1005.0 |
| 20260510000211 | 52 | 245 | 0.0 | 2.0 | 0.08 | 0.00 | 0.19 | 94 | 1006.0 |
| 20260509235709 | 52 | 245 | 2.0 | 2.0 | 0.12 | 0.00 | 0.19 | 93 | 1006.0 |
| 20260509235209 | 52 | 245 | 2.0 | 2.0 | 0.19 | 0.00 | 0.19 | 93 | 1005.0 |
| 20260509234709 | 52 | 245 | 3.0 | 3.0 | 0.19 | 0.00 | 0.19 | 93 | 1005.0 |
| 20260509234209 | 52 | 245 | 2.0 | 2.0 | 0.19 | 0.00 | 0.19 | 93 | 1005.0 |
| 20260509233709 | 51 | 245 | 1.0 | 1.0 | 0.19 | 0.00 | 0.19 | 92 | 1005.0 |
| 20260509233209 | 51 | 245 | 3.0 | 4.0 | 0.18 | 0.00 | 0.18 | 92 | 1006.0 |
| 20260509232709 | 52 | 245 | 4.0 | 6.0 | 0.17 | 0.00 | 0.17 | 92 | 1006.0 |
| 20260509232209 | 52 | 245 | 5.0 | 6.0 | 0.16 | 0.00 | 0.16 | 91 | 1006.0 |
| 20260509231709 | 52 | 245 | 3.0 | 6.0 | 0.15 | 0.00 | 0.15 | 91 | 1006.0 |
| 20260509231209 | 52 | 245 | 6.0 | 6.0 | 0.13 | 0.00 | 0.14 | 90 | 1006.0 |
| 20260509230709 | 52 | 245 | 2.0 | 10.0 | 0.12 | 0.00 | 0.12 | 89 | 1006.0 |
| 20260509230209 | 53 | 245 | 9.0 | 11.0 | 0.11 | 0.00 | 0.11 | 87 | 1006.0 |
| 20260509225709 | 56 | 245 | 10.0 | 13.0 | 0.03 | 0.00 | 0.04 | 80 | 1007.0 |
| 20260509225209 | 59 | 245 | 3.0 | 3.0 | 0.00 | 0.00 | 0.00 | 77 | 1006.0 |
| 20260509224710 | 60 | 245 | 5.0 | 6.0 | 0.00 | 0.00 | 0.00 | 75 | 1004.0 |
| 20260509224209 | 61 | 245 | 3.0 | 4.0 | 0.00 | 0.00 | 0.00 | 73 | 1004.0 |
| 20260509223709 | 61 | 245 | 3.0 | 4.0 | 0.00 | 0.00 | 0.00 | 69 | 1004.0 |
| 20260509223209 | 61 | 245 | 1.0 | 2.0 | 0.00 | 0.00 | 0.00 | 67 | 1004.0 |
| 20260509222709 | 62 | 245 | 2.0 | 4.0 | 0.00 | 0.00 | 0.00 | 66 | 1003.0 |
| 20260509222209 | 62 | 245 | 2.0 | 3.0 | 0.00 | 0.00 | 0.00 | 66 | 1003.0 |
| 20260509221709 | 62 | 245 | 1.0 | 2.0 | 0.00 | 0.00 | 0.00 | 66 | 1003.0 |
| 20260509221210 | 62 | 245 | 2.0 | 3.0 | 0.00 | 0.00 | 0.00 | 65 | 1003.0 |
| 20260509220709 | 63 | 245 | 1.0 | 5.0 | 0.00 | 0.00 | 0.00 | 65 | 1003.0 |
| 20260509220209 | 63 | 245 | 2.0 | 4.0 | 0.00 | 0.00 | 0.00 | 65 | 1003.0 |
| 20260509215709 | 63 | 245 | 2.0 | 5.0 | 0.00 | 0.00 | 0.00 | 64 | 1003.0 |
| 20260509215210 | 63 | 245 | 3.0 | 5.0 | 0.00 | 0.00 | 0.00 | 63 | 1003.0 |
| 20260509214709 | 63 | 245 | 3.0 | 4.0 | 0.00 | 0.00 | 0.00 | 63 | 1004.0 |
| 20260509214209 | 64 | 245 | 2.0 | 4.0 | 0.00 | 0.00 | 0.00 | 63 | 1004.0 |
| 20260509213709 | 64 | 245 | 2.0 | 2.0 | 0.00 | 0.00 | 0.00 | 62 | 1004.0 |
| 20260509213209 | 64 | 245 | 0.0 | 1.0 | 0.00 | 0.00 | 0.00 | 63 | 1004.0 |
| 20260509212711 | 63 | 245 | 1.0 | 2.0 | 0.00 | 0.00 | 0.00 | 63 | 1004.0 |
| 20260509212209 | 63 | 245 | 1.0 | 4.0 | 0.00 | 0.00 | 0.00 | 64 | 1004.0 |
| 20260509211709 | 63 | 245 | 2.0 | 4.0 | 0.00 | 0.00 | 0.00 | 64 | 1004.0 |
| 20260509211210 | 63 | 245 | 2.0 | 4.0 | 0.00 | 0.00 | 0.00 | 64 | 1004.0 |
| 20260509210710 | 63 | 245 | 3.0 | 5.0 | 0.00 | 0.00 | 0.00 | 64 | 1004.0 |
| 20260509210209 | 63 | 245 | 3.0 | 3.0 | 0.00 | 0.00 | 0.00 | 63 | 1004.0 |
| 20260509205709 | 63 | 245 | 2.0 | 5.0 | 0.00 | 0.00 | 0.00 | 62 | 1004.0 |
| 20260509205209 | 64 | 245 | 2.0 | 4.0 | 0.00 | 0.00 | 0.00 | 63 | 1004.0 |
| 20260509204709 | 63 | 245 | 4.0 | 6.0 | 0.00 | 0.00 | 0.00 | 63 | 1004.0 |
| 20260509204209 | 63 | 245 | 2.0 | 7.0 | 0.00 | 0.00 | 0.00 | 63 | 1004.0 |
| 20260509203710 | 63 | 245 | 2.0 | 5.0 | 0.00 | 0.00 | 0.00 | 63 | 1004.0 |
| 20260509203209 | 63 | 245 | 2.0 | 4.0 | 0.00 | 0.00 | 0.00 | 63 | 1004.0 |
| 20260509202709 | 63 | 245 | 2.0 | 3.0 | 0.00 | 0.00 | 0.00 | 63 | 1004.0 |
| 20260509202209 | 64 | 245 | 2.0 | 2.0 | 0.00 | 0.00 | 0.00 | 62 | 1004.0 |
| 20260509201709 | 64 | 245 | 3.0 | 6.0 | 0.00 | 0.00 | 0.00 | 61 | 1004.0 |
| 20260509201209 | 65 | 245 | 3.0 | 5.0 | 0.00 | 0.00 | 0.00 | 60 | 1004.0 |
| 20260509200709 | 66 | 245 | 6.0 | 6.0 | 0.00 | 0.00 | 0.00 | 59 | 1004.0 |
| 20260509200210 | 67 | 245 | 6.0 | 7.0 | 0.00 | 0.00 | 0.00 | 57 | 1004.0 |
| 20260509195709 | 67 | 245 | 7.0 | 7.0 | 0.00 | 0.00 | 0.00 | 57 | 1004.0 |
| 20260509195211 | 67 | 245 | 4.0 | 6.0 | 0.00 | 0.00 | 0.00 | 58 | 1004.0 |
| 20260509194711 | 67 | 245 | 3.0 | 9.0 | 0.00 | 0.00 | 0.00 | 57 | 1004.0 |
| 20260509194209 | 67 | 245 | 5.0 | 5.0 | 0.00 | 0.00 | 0.00 | 58 | 1004.0 |
| 20260509193710 | 66 | 245 | 6.0 | 8.0 | 0.00 | 0.00 | 0.00 | 57 | 1004.0 |
| 20260509193210 | 67 | 245 | 5.0 | 7.0 | 0.00 | 0.00 | 0.00 | 56 | 1004.0 |
| 20260509192710 | 66 | 245 | 6.0 | 10.0 | 0.00 | 0.00 | 0.00 | 56 | 1005.0 |
| 20260509192209 | 68 | 245 | 4.0 | 10.0 | 0.00 | 0.00 | 0.00 | 55 | 1005.0 |
| 20260509191709 | 68 | 245 | 2.0 | 8.0 | 0.00 | 0.00 | 0.00 | 56 | 1005.0 |
| 20260509191210 | 67 | 245 | 4.0 | 7.0 | 0.00 | 0.00 | 0.00 | 58 | 1005.0 |
| 20260509190710 | 66 | 245 | 6.0 | 7.0 | 0.00 | 0.00 | 0.00 | 59 | 1005.0 |
| 20260509190211 | 66 | 245 | 9.0 | 9.0 | 0.00 | 0.00 | 0.00 | 59 | 1005.0 |
| 20260509185710 | 66 | 245 | 2.0 | 9.0 | 0.00 | 0.00 | 0.00 | 60 | 1005.0 |
| 20260509185209 | 66 | 245 | 2.0 | 2.0 | 0.00 | 0.00 | 0.00 | 60 | 1005.0 |
| 20260509184711 | 66 | 245 | 4.0 | 10.0 | 0.00 | 0.00 | 0.00 | 59 | 1005.0 |
| 20260509184209 | 65 | 245 | 4.0 | 6.0 | 0.00 | 0.00 | 0.00 | 60 | 1005.0 |
| 20260509183710 | 65 | 245 | 5.0 | 9.0 | 0.00 | 0.00 | 0.00 | 61 | 1005.0 |
| 20260509183210 | 66 | 245 | 2.0 | 7.0 | 0.00 | 0.00 | 0.00 | 62 | 1005.0 |
| 20260509182711 | 66 | 245 | 8.0 | 9.0 | 0.00 | 0.00 | 0.00 | 60 | 1005.0 |
| 20260509182210 | 66 | 245 | 7.0 | 8.0 | 0.00 | 0.00 | 0.00 | 61 | 1005.0 |
| 20260509181709 | 66 | 245 | 2.0 | 8.0 | 0.00 | 0.00 | 0.00 | 63 | 1005.0 |
| 20260509181210 | 65 | 245 | 4.0 | 9.0 | 0.00 | 0.00 | 0.00 | 62 | 1005.0 |
| 20260509180709 | 65 | 245 | 3.0 | 11.0 | 0.00 | 0.00 | 0.00 | 61 | 1005.0 |
| 20260509180209 | 66 | 245 | 8.0 | 8.0 | 0.00 | 0.00 | 0.00 | 62 | 1005.0 |
| 20260509175713 | 65 | 245 | 4.0 | 9.0 | 0.00 | 0.00 | 0.00 | 62 | 1006.0 |
| 20260509175210 | 65 | 245 | 5.0 | 12.0 | 0.00 | 0.00 | 0.00 | 62 | 1006.0 |
| 20260509174710 | 64 | 245 | 3.0 | 11.0 | 0.00 | 0.00 | 0.00 | 63 | 1006.0 |
| 20260509174209 | 65 | 245 | 5.0 | 13.0 | 0.00 | 0.00 | 0.00 | 62 | 1006.0 |
| 20260509173710 | 64 | 245 | 4.0 | 6.0 | 0.00 | 0.00 | 0.00 | 63 | 1006.0 |
| 20260509173210 | 64 | 245 | 3.0 | 6.0 | 0.00 | 0.00 | 0.00 | 63 | 1006.0 |
| 20260509172709 | 64 | 245 | 3.0 | 5.0 | 0.00 | 0.00 | 0.00 | 63 | 1006.0 |
| 20260509172210 | 65 | 245 | 4.0 | 7.0 | 0.00 | 0.00 | 0.00 | 62 | 1006.0 |
| 20260509171709 | 65 | 245 | 4.0 | 8.0 | 0.00 | 0.00 | 0.00 | 63 | 1006.0 |
| 20260509171209 | 64 | 245 | 3.0 | 5.0 | 0.00 | 0.00 | 0.00 | 64 | 1006.0 |
| 20260509170709 | 64 | 245 | 2.0 | 6.0 | 0.00 | 0.00 | 0.00 | 64 | 1006.0 |
| 20260509170211 | 63 | 245 | 6.0 | 8.0 | 0.00 | 0.00 | 0.00 | 64 | 1006.0 |
| 20260509165709 | 65 | 245 | 6.0 | 6.0 | 0.00 | 0.00 | 0.00 | 60 | 1006.0 |
| 20260509165209 | 64 | 245 | 3.0 | 7.0 | 0.00 | 0.00 | 0.00 | 63 | 1006.0 |
| 20260509164709 | 64 | 245 | 2.0 | 7.0 | 0.00 | 0.00 | 0.00 | 60 | 1006.0 |
| 20260509164210 | 65 | 245 | 3.0 | 6.0 | 0.00 | 0.00 | 0.00 | 60 | 1006.0 |
| 20260509163221 | 63 | 245 | 5.0 | 9.0 | 0.00 | 0.00 | 0.00 | 62 | 1007.0 |
| 20260509162709 | 64 | 245 | 3.0 | 9.0 | 0.00 | 0.00 | 0.00 | 62 | 1007.0 |
| 20260509162209 | 65 | 245 | 2.0 | 8.0 | 0.00 | 0.00 | 0.00 | 61 | 1007.0 |
| 20260509161709 | 64 | 245 | 2.0 | 6.0 | 0.00 | 0.00 | 0.00 | 61 | 1007.0 |
| 20260509161209 | 64 | 245 | 1.0 | 7.0 | 0.00 | 0.00 | 0.00 | 64 | 1007.0 |
| 20260509160711 | 63 | 245 | 2.0 | 7.0 | 0.00 | 0.00 | 0.00 | 65 | 1007.0 |
| 20260509160210 | 62 | 245 | 3.0 | 7.0 | 0.00 | 0.00 | 0.00 | 66 | 1007.0 |
| 20260509155710 | 62 | 245 | 3.0 | 8.0 | 0.00 | 0.00 | 0.00 | 68 | 1007.0 |
| 20260509155209 | 61 | 245 | 3.0 | 8.0 | 0.00 | 0.00 | 0.00 | 68 | 1007.0 |
| 20260509154711 | 60 | 245 | 2.0 | 4.0 | 0.00 | 0.00 | 0.00 | 71 | 1007.0 |
| 20260509154209 | 59 | 245 | 2.0 | 6.0 | 0.00 | 0.00 | 0.00 | 72 | 1007.0 |
| 20260509153709 | 60 | 245 | 3.0 | 12.0 | 0.00 | 0.00 | 0.00 | 70 | 1007.0 |
| 20260509153209 | 60 | 245 | 1.0 | 8.0 | 0.00 | 0.00 | 0.00 | 71 | 1007.0 |
| 20260509152709 | 61 | 245 | 3.0 | 9.0 | 0.00 | 0.00 | 0.00 | 67 | 1007.0 |
| 20260509152209 | 61 | 245 | 2.0 | 3.0 | 0.00 | 0.00 | 0.00 | 68 | 1007.0 |
| 20260509151709 | 61 | 245 | 2.0 | 5.0 | 0.00 | 0.00 | 0.00 | 69 | 1007.0 |
| 20260509151209 | 61 | 245 | 4.0 | 6.0 | 0.00 | 0.00 | 0.00 | 70 | 1007.0 |
| 20260509150709 | 60 | 245 | 1.0 | 4.0 | 0.00 | 0.00 | 0.00 | 71 | 1007.0 |
| 20260509150209 | 59 | 245 | 3.0 | 7.0 | 0.00 | 0.00 | 0.00 | 73 | 1007.0 |
| 20260509145712 | 60 | 245 | 3.0 | 3.0 | 0.00 | 0.00 | 0.00 | 73 | 1007.0 |
| 20260509145209 | 59 | 245 | 4.0 | 4.0 | 0.00 | 0.00 | 0.00 | 72 | 1007.0 |
| 20260509144710 | 60 | 245 | 1.0 | 5.0 | 0.00 | 0.00 | 0.00 | 72 | 1007.0 |
| 20260509144209 | 60 | 245 | 1.0 | 2.0 | 0.00 | 0.00 | 0.00 | 74 | 1007.0 |
| 20260509143710 | 60 | 245 | 3.0 | 4.0 | 0.00 | 0.00 | 0.00 | 74 | 1007.0 |
| 20260509143210 | 59 | 245 | 4.0 | 6.0 | 0.00 | 0.00 | 0.00 | 74 | 1007.0 |
| 20260509142709 | 59 | 245 | 3.0 | 6.0 | 0.00 | 0.00 | 0.00 | 75 | 1007.0 |
| 20260509142209 | 59 | 245 | 2.0 | 6.0 | 0.00 | 0.00 | 0.00 | 75 | 1007.0 |
| 20260509141709 | 58 | 245 | 1.0 | 4.0 | 0.00 | 0.00 | 0.00 | 74 | 1007.0 |
| 20260509141210 | 59 | 245 | 3.0 | 5.0 | 0.00 | 0.00 | 0.00 | 75 | 1007.0 |
| 20260509140709 | 58 | 245 | 2.0 | 4.0 | 0.00 | 0.00 | 0.00 | 76 | 1007.0 |
| 20260509140210 | 58 | 245 | 0.0 | 4.0 | 0.00 | 0.00 | 0.00 | 77 | 1007.0 |
| 20260509135709 | 57 | 245 | 2.0 | 2.0 | 0.00 | 0.00 | 0.00 | 77 | 1008.0 |
| 20260509135209 | 57 | 245 | 2.0 | 3.0 | 0.00 | 0.00 | 0.00 | 78 | 1008.0 |
| 20260509134709 | 57 | 245 | 3.0 | 3.0 | 0.00 | 0.00 | 0.00 | 78 | 1008.0 |
| 20260509134210 | 57 | 245 | 3.0 | 6.0 | 0.00 | 0.00 | 0.00 | 78 | 1008.0 |
| 20260509133711 | 56 | 245 | 2.0 | 7.0 | 0.00 | 0.00 | 0.00 | 78 | 1008.0 |
| 20260509133210 | 57 | 245 | 3.0 | 4.0 | 0.00 | 0.00 | 0.00 | 79 | 1008.0 |
| 20260509132710 | 56 | 245 | 4.0 | 4.0 | 0.00 | 0.00 | 0.00 | 79 | 1008.0 |
| 20260509132210 | 56 | 245 | 2.0 | 4.0 | 0.00 | 0.00 | 0.00 | 79 | 1008.0 |
| 20260509131709 | 56 | 245 | 2.0 | 6.0 | 0.00 | 0.00 | 0.00 | 80 | 1008.0 |
| 20260509131209 | 56 | 245 | 2.0 | 4.0 | 0.00 | 0.00 | 0.00 | 80 | 1008.0 |
| 20260509130710 | 56 | 245 | 3.0 | 5.0 | 0.00 | 0.00 | 0.00 | 81 | 1008.0 |
| 20260509130209 | 56 | 245 | 3.0 | 5.0 | 0.00 | 0.00 | 0.00 | 81 | 1008.0 |
| 20260509125709 | 56 | 245 | 3.0 | 7.0 | 0.00 | 0.00 | 0.00 | 80 | 1008.0 |
| 20260509125209 | 55 | 245 | 3.0 | 4.0 | 0.00 | 0.00 | 0.00 | 81 | 1008.0 |
| 20260509124709 | 55 | 245 | 1.0 | 4.0 | 0.00 | 0.00 | 0.00 | 82 | 1008.0 |
| 20260509124209 | 54 | 245 | 0.0 | 3.0 | 0.00 | 0.00 | 0.00 | 82 | 1008.0 |
| 20260509123709 | 54 | 245 | 0.0 | 2.0 | 0.00 | 0.00 | 0.00 | 83 | 1008.0 |
| 20260509123211 | 53 | 245 | 3.0 | 3.0 | 0.00 | 0.00 | 0.00 | 84 | 1008.0 |
| 20260509122710 | 53 | 245 | 0.0 | 5.0 | 0.00 | 0.00 | 0.00 | 84 | 1008.0 |
| 20260509122209 | 53 | 245 | 2.0 | 3.0 | 0.00 | 0.00 | 0.00 | 84 | 1008.0 |
| 20260509121709 | 52 | 245 | 2.0 | 4.0 | 0.00 | 0.00 | 0.00 | 84 | 1008.0 |
| 20260509121210 | 52 | 245 | 0.0 | 5.0 | 0.00 | 0.00 | 0.00 | 85 | 1008.0 |
| 20260509120709 | 52 | 245 | 1.0 | 1.0 | 0.00 | 0.00 | 0.00 | 86 | 1008.0 |
| 20260509120209 | 51 | 245 | 2.0 | 2.0 | 0.00 | 0.00 | 0.00 | 86 | 1008.0 |
| 20260509115709 | 51 | 245 | 0.0 | 0.0 | 0.00 | 0.00 | 0.00 | 87 | 1008.0 |
| 20260509115209 | 50 | 245 | 2.0 | 2.0 | 0.00 | 0.00 | 0.00 | 87 | 1008.0 |
| 20260509114709 | 49 | 245 | 0.0 | 2.0 | 0.00 | 0.00 | 0.00 | 87 | 1008.0 |
| 20260509114210 | 49 | 245 | 0.0 | 1.0 | 0.00 | 0.00 | 0.00 | 88 | 1008.0 |
| 20260509113709 | 49 | 245 | 2.0 | 3.0 | 0.00 | 0.00 | 0.00 | 88 | 1008.0 |
| 20260509113210 | 48 | 245 | 1.0 | 2.0 | 0.00 | 0.00 | 0.00 | 89 | 1008.0 |
| 20260509112709 | 48 | 245 | 0.0 | 2.0 | 0.00 | 0.00 | 0.00 | 90 | 1008.0 |
| 20260509112210 | 47 | 245 | 1.0 | 2.0 | 0.00 | 0.00 | 0.00 | 91 | 1008.0 |
| 20260509111709 | 47 | 245 | 1.0 | 1.0 | 0.00 | 0.00 | 0.00 | 92 | 1008.0 |
| 20260509111209 | 46 | 245 | 0.0 | 3.0 | 0.00 | 0.00 | 0.00 | 92 | 1008.0 |
| 20260509110710 | 45 | 245 | 0.0 | 2.0 | 0.00 | 0.00 | 0.00 | 93 | 1008.0 |
| 20260509110211 | 44 | 245 | 0.0 | 0.0 | 0.00 | 0.00 | 0.00 | 92 | 1008.0 |
| 20260509105709 | 43 | 245 | 0.0 | 0.0 | 0.00 | 0.00 | 0.00 | 91 | 1008.0 |
| 20260509105209 | 43 | 245 | 0.0 | 0.0 | 0.00 | 0.00 | 0.00 | 91 | 1008.0 |
| 20260509104710 | 42 | 245 | 0.0 | 0.0 | 0.00 | 0.00 | 0.00 | 91 | 1008.0 |
| 20260509104209 | 42 | 245 | 0.0 | 0.0 | 0.00 | 0.00 | 0.00 | 90 | 1008.0 |
| 20260509103709 | 42 | 245 | 0.0 | 0.0 | 0.00 | 0.00 | 0.00 | 90 | 1008.0 |
| 20260509103209 | 42 | 245 | 0.0 | 0.0 | 0.00 | 0.00 | 0.00 | 90 | 1008.0 |
| 20260509102709 | 42 | 245 | 0.0 | 0.0 | 0.00 | 0.00 | 0.00 | 90 | 1008.0 |
| 20260509102209 | 42 | 245 | 0.0 | 0.0 | 0.00 | 0.00 | 0.00 | 90 | 1008.0 |
| 20260509101709 | 42 | 245 | 0.0 | 0.0 | 0.00 | 0.00 | 0.00 | 89 | 1008.0 |
| 20260509101209 | 42 | 245 | 0.0 | 0.0 | 0.00 | 0.00 | 0.00 | 89 | 1008.0 |
| 20260509100709 | 42 | 245 | 0.0 | 0.0 | 0.00 | 0.00 | 0.00 | 89 | 1008.0 |
| 20260509100211 | 42 | 245 | 0.0 | 0.0 | 0.00 | 0.00 | 0.00 | 89 | 1008.0 |
| 20260509095709 | 42 | 245 | 0.0 | 0.0 | 0.00 | 0.00 | 0.00 | 88 | 1008.0 |
| 20260509095209 | 42 | 245 | 0.0 | 0.0 | 0.00 | 0.00 | 0.00 | 89 | 1008.0 |
| 20260509094709 | 42 | 245 | 0.0 | 0.0 | 0.00 | 0.00 | 0.00 | 88 | 1008.0 |
| 20260509094209 | 42 | 245 | 0.0 | 0.0 | 0.00 | 0.00 | 0.00 | 88 | 1008.0 |
| 20260509093709 | 42 | 245 | 0.0 | 0.0 | 0.00 | 0.00 | 0.00 | 87 | 1008.0 |
| 20260509093211 | 42 | 245 | 0.0 | 0.0 | 0.00 | 0.00 | 0.00 | 87 | 1008.0 |
| 20260509092710 | 42 | 245 | 0.0 | 0.0 | 0.00 | 0.00 | 0.00 | 87 | 1008.0 |
| 20260509092209 | 42 | 245 | 0.0 | 0.0 | 0.00 | 0.00 | 0.00 | 87 | 1008.0 |
| 20260509091709 | 43 | 245 | 0.0 | 0.0 | 0.00 | 0.00 | 0.00 | 86 | 1008.0 |
| 20260509091210 | 43 | 245 | 0.0 | 0.0 | 0.00 | 0.00 | 0.00 | 86 | 1008.0 |
| 20260509090709 | 43 | 245 | 0.0 | 0.0 | 0.00 | 0.00 | 0.00 | 86 | 1008.0 |
| 20260509090210 | 43 | 245 | 0.0 | 0.0 | 0.00 | 0.00 | 0.00 | 86 | 1008.0 |
| 20260509085709 | 42 | 245 | 0.0 | 0.0 | 0.00 | 0.00 | 0.00 | 85 | 1008.0 |
| 20260509085209 | 43 | 245 | 0.0 | 0.0 | 0.00 | 0.00 | 0.00 | 85 | 1008.0 |
| 20260509084709 | 43 | 245 | 0.0 | 0.0 | 0.00 | 0.00 | 0.00 | 85 | 1008.0 |
| 20260509084209 | 43 | 245 | 0.0 | 0.0 | 0.00 | 0.00 | 0.00 | 83 | 1008.0 |
| 20260509083709 | 43 | 245 | 0.0 | 0.0 | 0.00 | 0.00 | 0.00 | 83 | 1008.0 |
| 20260509083209 | 43 | 245 | 0.0 | 0.0 | 0.00 | 0.00 | 0.00 | 82 | 1008.0 |
| 20260509082710 | 43 | 245 | 0.0 | 0.0 | 0.00 | 0.00 | 0.00 | 82 | 1008.0 |
| 20260509082211 | 43 | 245 | 0.0 | 0.0 | 0.00 | 0.00 | 0.00 | 81 | 1008.0 |
| 20260509081709 | 43 | 245 | 0.0 | 0.0 | 0.00 | 0.00 | 0.00 | 80 | 1008.0 |
| 20260509081209 | 43 | 245 | 0.0 | 1.0 | 0.00 | 0.00 | 0.00 | 80 | 1008.0 |
| 20260509080710 | 43 | 245 | 0.0 | 1.0 | 0.00 | 0.00 | 0.00 | 80 | 1008.0 |
| 20260509080209 | 43 | 245 | 0.0 | 1.0 | 0.00 | 0.00 | 0.00 | 80 | 1008.0 |
| 20260509075709 | 43 | 245 | 1.0 | 1.0 | 0.00 | 0.00 | 0.00 | 79 | 1008.0 |
| 20260509075209 | 43 | 245 | 0.0 | 1.0 | 0.00 | 0.00 | 0.00 | 78 | 1009.0 |
| 20260509074709 | 43 | 245 | 1.0 | 1.0 | 0.00 | 0.00 | 0.00 | 78 | 1009.0 |
| 20260509074209 | 43 | 245 | 1.0 | 1.0 | 0.00 | 0.00 | 0.00 | 77 | 1009.0 |
| 20260509073709 | 43 | 245 | 0.0 | 0.0 | 0.00 | 0.00 | 0.00 | 76 | 1009.0 |
| 20260509073210 | 43 | 245 | 0.0 | 2.0 | 0.00 | 0.00 | 0.00 | 76 | 1009.0 |
| 20260509072709 | 43 | 245 | 0.0 | 2.0 | 0.00 | 0.00 | 0.00 | 76 | 1009.0 |
| 20260509072209 | 43 | 245 | 2.0 | 2.0 | 0.00 | 0.00 | 0.00 | 76 | 1009.0 |
| 20260509071709 | 42 | 245 | 1.0 | 1.0 | 0.00 | 0.00 | 0.00 | 78 | 1009.0 |
| 20260509071209 | 42 | 245 | 0.0 | 2.0 | 0.00 | 0.00 | 0.00 | 78 | 1009.0 |
| 20260509070709 | 42 | 245 | 1.0 | 2.0 | 0.00 | 0.00 | 0.00 | 77 | 1009.0 |
| 20260509070209 | 42 | 245 | 0.0 | 0.0 | 0.00 | 0.00 | 0.00 | 77 | 1009.0 |
| 20260509065710 | 42 | 245 | 0.0 | 0.0 | 0.00 | 0.00 | 0.00 | 76 | 1009.0 |
| 20260509065209 | 42 | 245 | 0.0 | 0.0 | 0.00 | 0.00 | 0.00 | 76 | 1009.0 |
| 20260509064710 | 42 | 245 | 0.0 | 0.0 | 0.00 | 0.00 | 0.00 | 76 | 1009.0 |
| 20260509064210 | 42 | 245 | 0.0 | 1.0 | 0.00 | 0.00 | 0.00 | 75 | 1009.0 |
| 20260509063709 | 42 | 245 | 0.0 | 1.0 | 0.00 | 0.00 | 0.00 | 75 | 1009.0 |
| 20260509063209 | 42 | 245 | 1.0 | 1.0 | 0.00 | 0.00 | 0.00 | 75 | 1009.0 |
| 20260509062710 | 42 | 245 | 0.0 | 1.0 | 0.00 | 0.00 | 0.00 | 75 | 1009.0 |
| 20260509062210 | 42 | 245 | 0.0 | 1.0 | 0.00 | 0.00 | 0.00 | 75 | 1009.0 |
| 20260509061711 | 42 | 245 | 1.0 | 1.0 | 0.00 | 0.00 | 0.00 | 74 | 1010.0 |
| 20260509061210 | 42 | 245 | 0.0 | 1.0 | 0.00 | 0.00 | 0.00 | 74 | 1010.0 |
| 20260509060709 | 42 | 245 | 0.0 | 1.0 | 0.00 | 0.00 | 0.00 | 73 | 1010.0 |
| 20260509060209 | 42 | 245 | 0.0 | 0.0 | 0.00 | 0.00 | 0.00 | 74 | 1010.0 |
| 20260509055709 | 43 | 245 | 0.0 | 0.0 | 0.00 | 0.00 | 0.00 | 73 | 1010.0 |
| 20260509055209 | 43 | 245 | 0.0 | 0.0 | 0.00 | 0.00 | 0.00 | 73 | 1010.0 |
| 20260509054710 | 43 | 245 | 0.0 | 0.0 | 0.00 | 0.00 | 0.00 | 72 | 1010.0 |
| 20260509054209 | 43 | 245 | 0.0 | 0.0 | 0.00 | 0.00 | 0.00 | 72 | 1010.0 |
| 20260509053709 | 43 | 245 | 0.0 | 0.0 | 0.00 | 0.00 | 0.00 | 73 | 1010.0 |
| 20260509053209 | 43 | 245 | 0.0 | 0.0 | 0.00 | 0.00 | 0.00 | 72 | 1010.0 |
| 20260509052709 | 43 | 245 | 0.0 | 0.0 | 0.00 | 0.00 | 0.00 | 71 | 1010.0 |
| 20260509052210 | 43 | 245 | 0.0 | 0.0 | 0.00 | 0.00 | 0.00 | 71 | 1010.0 |
| 20260509051710 | 43 | 245 | 1.0 | 1.0 | 0.00 | 0.00 | 0.00 | 70 | 1010.0 |
| 20260509051209 | 43 | 245 | 0.0 | 1.0 | 0.00 | 0.00 | 0.00 | 70 | 1010.0 |
| 20260509050709 | 43 | 245 | 0.0 | 1.0 | 0.00 | 0.00 | 0.00 | 71 | 1010.0 |
| 20260509050209 | 43 | 245 | 0.0 | 2.0 | 0.00 | 0.00 | 0.00 | 72 | 1010.0 |
| 20260509045710 | 43 | 245 | 1.0 | 1.0 | 0.00 | 0.00 | 0.00 | 73 | 1010.0 |
| 20260509045209 | 43 | 245 | 0.0 | 0.0 | 0.00 | 0.00 | 0.00 | 73 | 1010.0 |
| 20260509044709 | 43 | 245 | 0.0 | 0.0 | 0.00 | 0.00 | 0.00 | 73 | 1010.0 |
| 20260509044210 | 43 | 245 | 0.0 | 0.0 | 0.00 | 0.00 | 0.00 | 71 | 1010.0 |
| 20260509043710 | 43 | 245 | 0.0 | 0.0 | 0.00 | 0.00 | 0.00 | 71 | 1010.0 |
| 20260509043210 | 43 | 245 | 0.0 | 0.0 | 0.00 | 0.00 | 0.00 | 70 | 1010.0 |
| 20260509042709 | 43 | 245 | 0.0 | 0.0 | 0.00 | 0.00 | 0.00 | 70 | 1011.0 |
| 20260509042211 | 43 | 245 | 0.0 | 0.0 | 0.00 | 0.00 | 0.00 | 69 | 1011.0 |
| 20260509041709 | 43 | 245 | 1.0 | 2.0 | 0.00 | 0.00 | 0.00 | 69 | 1011.0 |